Time;durP1;ratioP1;P1;durP2;ratioP2;P2;SDS_P1;SDS_P2;PMS_P1;PMS_P2;Temp;Humidity;BMP_temperature;BMP_pressure;BME280_temperature;BME280_humidity;BME280_pressure;Samples;Min_cycle;Max_cycle;Signal;HPM_P1;HPM_P2
2022/08/17 00:01:25;;;;;;;2.38;0.98;;;;;;;20.54;100.00;97835.06;15277881;19;20050;-72
2022/08/17 00:06:34;;;;;;;4.10;0.90;;;;;;;20.51;100.00;97834.69;15276368;19;20014;-72
2022/08/17 00:11:42;;;;;;;2.28;0.90;;;;;;;20.41;100.00;97843.50;15277237;19;20007;-72
2022/08/17 00:17:07;;;;;;;1.98;0.82;;;;;;;20.30;100.00;97846.00;15282621;19;20073;-72
2022/08/17 00:22:14;;;;;;;1.40;0.90;;;;;;;20.19;100.00;97852.31;15279042;19;20799;-73
2022/08/17 00:27:38;;;;;;;2.25;1.10;;;;;;;20.07;100.00;97851.50;15278895;19;20032;-69
2022/08/17 00:32:46;;;;;;;2.58;0.80;;;;;;;19.96;100.00;97851.25;15284805;19;20657;-73
2022/08/17 00:38:14;;;;;;;1.90;0.90;;;;;;;19.85;100.00;97861.09;15312227;19;20014;-71
2022/08/17 00:43:23;;;;;;;2.60;0.98;;;;;;;19.73;100.00;97862.13;15335770;19;20025;-70
2022/08/17 00:48:28;;;;;;;2.03;0.88;;;;;;;19.66;100.00;97852.13;15273594;19;20002;-73
2022/08/17 00:53:40;;;;;;;1.45;1.00;;;;;;;19.65;100.00;97861.41;15274216;19;20022;-73
2022/08/17 00:58:46;;;;;;;1.35;1.00;;;;;;;19.66;100.00;97854.88;15262777;19;20088;-70
2022/08/17 01:03:52;;;;;;;1.33;0.98;;;;;;;19.68;100.00;97849.16;15272764;19;20017;-72
2022/08/17 01:09:05;;;;;;;2.13;1.10;;;;;;;19.65;100.00;97858.66;15272730;19;20082;-73
2022/08/17 01:14:10;;;;;;;0.98;0.88;;;;;;;19.65;100.00;97861.41;15273890;19;20010;-72
2022/08/17 01:19:18;;;;;;;4.70;1.17;;;;;;;19.66;100.00;97856.75;15271286;19;20045;-71
2022/08/17 01:24:26;;;;;;;2.22;1.15;;;;;;;19.60;100.00;97863.16;15272355;19;20034;-71
2022/08/17 01:29:32;;;;;;;2.42;0.98;;;;;;;19.58;100.00;97871.56;15264822;19;20035;-71
2022/08/17 01:34:38;;;;;;;1.23;0.90;;;;;;;19.55;100.00;97872.06;15275918;19;20038;-70
2022/08/17 01:40:01;;;;;;;1.45;0.93;;;;;;;19.51;100.00;97865.38;15276236;19;20482;-72
2022/08/17 01:45:13;;;;;;;1.65;1.00;;;;;;;19.47;100.00;97866.91;15273978;19;20015;-72
2022/08/17 01:50:22;;;;;;;3.38;1.10;;;;;;;19.43;100.00;97866.53;15274561;19;20014;-70
2022/08/17 01:55:33;;;;;;;3.15;1.10;;;;;;;19.39;100.00;97858.00;15274350;19;20010;-72
2022/08/17 02:00:40;;;;;;;2.42;1.13;;;;;;;19.37;100.00;97851.09;15265730;19;20014;-70
2022/08/17 02:06:05;;;;;;;1.67;0.88;;;;;;;19.35;100.00;97869.63;15263126;19;20010;-73
2022/08/17 02:11:36;;;;;;;1.48;1.10;;;;;;;19.25;100.00;97864.69;15272087;19;20013;-74
2022/08/17 02:16:43;;;;;;;2.37;1.00;;;;;;;19.22;100.00;97854.25;15275248;19;20014;-74
2022/08/17 02:21:50;;;;;;;2.15;1.10;;;;;;;19.18;100.00;97853.03;15271676;19;20021;-73
2022/08/17 02:26:57;;;;;;;2.58;1.15;;;;;;;19.13;100.00;97852.91;15267056;19;20017;-74
2022/08/17 02:32:03;;;;;;;1.75;1.10;;;;;;;19.06;100.00;97842.06;15272279;19;20006;-73
2022/08/17 02:37:08;;;;;;;2.30;1.10;;;;;;;19.00;100.00;97838.34;15271737;19;20022;-74
2022/08/17 02:42:17;;;;;;;2.10;1.20;;;;;;;18.86;100.00;97836.84;15301748;19;20037;-74
2022/08/17 02:47:21;;;;;;;1.83;1.10;;;;;;;18.70;100.00;97839.13;15330862;19;20035;-73
2022/08/17 02:52:30;;;;;;;3.75;1.30;;;;;;;18.64;100.00;97835.44;15272109;19;20006;-73
2022/08/17 02:57:50;;;;;;;2.10;1.02;;;;;;;18.58;100.00;97830.03;15271293;19;20417;-72
2022/08/17 03:02:55;;;;;;;2.60;1.00;;;;;;;18.55;100.00;97838.69;15267723;19;20498;-73
2022/08/17 03:08:00;;;;;;;1.48;0.95;;;;;;;18.53;100.00;97829.88;15264419;19;20014;-74
2022/08/17 03:13:07;;;;;;;1.70;1.10;;;;;;;18.50;100.00;97839.34;15271616;19;20010;-73
2022/08/17 03:18:14;;;;;;;1.27;1.17;;;;;;;18.50;100.00;97838.53;15277923;19;20020;-73
2022/08/17 03:23:30;;;;;;;1.73;1.05;;;;;;;18.44;100.00;97835.66;15284144;19;20546;-74
2022/08/17 03:28:38;;;;;;;2.00;1.30;;;;;;;18.39;100.00;97840.97;15277937;19;20047;-73
2022/08/17 03:33:43;;;;;;;3.10;1.25;;;;;;;18.36;100.00;97851.47;15285550;19;20515;-77
2022/08/17 03:38:47;;;;;;;2.35;1.35;;;;;;;18.28;100.00;97841.72;15273077;19;20023;-72
2022/08/17 03:43:57;;;;;;;1.90;1.13;;;;;;;18.25;100.00;97837.53;15285383;19;20021;-73
2022/08/17 03:59:39;;;;;;;3.95;1.30;;;;;;;18.07;100.00;97838.31;15284365;19;20042;-72
2022/08/17 04:04:44;;;;;;;2.75;1.20;;;;;;;18.06;100.00;97844.00;15283656;19;20011;-74
2022/08/17 04:09:49;;;;;;;1.77;1.33;;;;;;;18.01;100.00;97842.78;15273584;19;20015;-75
2022/08/17 04:14:56;;;;;;;2.28;1.38;;;;;;;17.97;100.00;97840.72;15272696;19;20372;-77
2022/08/17 04:20:00;;;;;;;2.65;1.10;;;;;;;17.90;100.00;97842.66;15271760;19;20467;-74
2022/08/17 04:25:09;;;;;;;2.28;1.30;;;;;;;17.89;100.00;97841.81;15275723;19;20702;-74
2022/08/17 04:30:17;;;;;;;2.70;1.20;;;;;;;17.87;100.00;97849.41;15280512;19;20038;-77
2022/08/17 04:35:24;;;;;;;2.83;1.30;;;;;;;17.81;100.00;97851.13;15289034;19;20042;-76
2022/08/17 04:45:51;;;;;;;4.35;1.40;;;;;;;17.79;100.00;97866.84;15329204;19;20017;-73
2022/08/17 04:51:01;;;;;;;2.10;1.40;;;;;;;17.81;100.00;97863.91;15276315;19;20042;-75
2022/08/17 04:56:06;;;;;;;2.15;1.40;;;;;;;17.81;100.00;97875.66;15277231;19;20010;-75
2022/08/17 05:01:24;;;;;;;3.92;1.50;;;;;;;17.81;100.00;97877.53;15276302;19;20340;-74
2022/08/17 05:06:30;;;;;;;2.28;1.30;;;;;;;17.82;100.00;97885.47;15270933;19;20089;-74
2022/08/17 05:11:36;;;;;;;4.20;1.60;;;;;;;17.89;100.00;97895.50;15275049;19;20341;-75
2022/08/17 05:16:44;;;;;;;2.10;1.40;;;;;;;17.89;100.00;97898.22;15269294;19;20003;-79
2022/08/17 05:21:50;;;;;;;7.35;1.40;;;;;;;17.93;100.00;97900.28;15339781;19;20010;-85
2022/08/17 05:26:55;;;;;;;3.60;1.33;;;;;;;17.98;100.00;97896.91;15323728;19;20754;-79
2022/08/17 05:32:09;;;;;;;4.82;1.40;;;;;;;18.04;100.00;97901.47;15283131;19;20525;-80
2022/08/17 05:37:34;;;;;;;2.03;1.40;;;;;;;18.09;100.00;97907.09;15285541;19;20018;-78
2022/08/17 05:42:39;;;;;;;2.33;1.40;;;;;;;18.16;100.00;97904.31;15277967;19;20025;-81
2022/08/17 05:47:48;;;;;;;4.50;1.80;;;;;;;18.21;100.00;97900.91;15281071;19;20014;-84
2022/08/17 05:53:03;;;;;;;2.92;1.38;;;;;;;18.32;100.00;97911.09;15295599;19;20276;-79
2022/08/17 05:58:18;;;;;;;3.28;1.50;;;;;;;18.42;100.00;97914.13;15288045;19;20010;-82
2022/08/17 06:03:47;;;;;;;1.30;1.20;;;;;;;18.54;100.00;97922.41;15291754;19;20033;-80
2022/08/17 06:08:58;;;;;;;8.10;1.60;;;;;;;18.66;100.00;97917.03;15310824;19;20022;-78
2022/08/17 06:14:20;;;;;;;13.45;1.70;;;;;;;18.81;100.00;97905.78;15318448;19;20014;-81
2022/08/17 06:19:34;;;;;;;8.68;1.65;;;;;;;18.97;100.00;97915.28;15306082;19;20014;-81
2022/08/17 06:24:43;;;;;;;12.65;1.60;;;;;;;19.12;100.00;97925.78;15308693;19;20382;-77
2022/08/17 06:29:55;;;;;;;13.75;1.55;;;;;;;19.27;100.00;97930.03;15310410;19;20033;-79
2022/08/17 06:35:06;;;;;;;10.52;1.80;;;;;;;19.39;100.00;97923.53;15311633;19;20044;-78
2022/08/17 06:40:31;;;;;;;13.43;1.75;;;;;;;19.54;100.00;97923.13;15308338;19;20014;-78
2022/08/17 06:45:40;;;;;;;19.40;2.05;;;;;;;19.75;100.00;97939.25;15307532;19;20006;-79
2022/08/17 06:50:52;;;;;;;14.82;1.88;;;;;;;19.91;100.00;97935.88;15303655;19;20014;-80
2022/08/17 06:56:01;;;;;;;11.25;1.73;;;;;;;20.08;100.00;97907.84;15319834;19;20015;-79
2022/08/17 07:01:11;;;;;;;13.30;1.83;;;;;;;20.26;100.00;97910.50;15319143;19;20007;-80
2022/08/17 07:06:22;;;;;;;15.23;1.80;;;;;;;20.51;100.00;97912.16;15321276;19;20526;-80
2022/08/17 07:11:31;;;;;;;10.05;1.42;;;;;;;20.74;100.00;97905.00;15321454;19;20018;-78
2022/08/17 07:16:41;;;;;;;5.53;1.50;;;;;;;21.01;100.00;97909.97;15320315;19;20539;-80
2022/08/17 07:21:55;;;;;;;3.85;1.35;;;;;;;21.22;100.00;97901.13;15313772;19;20011;-79
2022/08/17 07:27:20;;;;;;;7.00;1.35;;;;;;;21.45;100.00;97904.84;15306184;19;20033;-79
2022/08/17 07:32:30;;;;;;;4.78;1.20;;;;;;;21.76;100.00;97897.19;15319501;19;20025;-79
2022/08/17 07:37:38;;;;;;;2.60;1.17;;;;;;;22.02;100.00;97897.66;15320131;19;20014;-79
2022/08/17 07:42:43;;;;;;;3.75;1.10;;;;;;;22.34;100.00;97897.03;15323412;19;20046;-78
2022/08/17 07:53:21;;;;;;;5.18;1.20;;;;;;;22.75;100.00;97911.41;15313007;19;20011;-79
2022/08/17 07:58:26;;;;;;;1.65;0.98;;;;;;;22.94;100.00;97909.16;15315241;19;20032;-78
2022/08/17 08:03:32;;;;;;;3.90;1.08;;;;;;;23.20;100.00;97905.97;15313827;19;20475;-78
2022/08/17 08:08:44;;;;;;;5.10;1.00;;;;;;;23.53;100.00;97915.13;15312388;19;20006;-79
2022/08/17 08:13:48;;;;;;;3.03;0.95;;;;;;;23.89;100.00;97912.75;15319037;19;20010;-79
2022/08/17 08:18:56;;;;;;;2.25;1.10;;;;;;;24.23;100.00;97918.00;15316499;19;20047;-78
2022/08/17 08:24:28;;;;;;;5.40;1.00;;;;;;;24.52;100.00;97909.41;15322942;19;20074;-81
2022/08/17 08:29:42;;;;;;;3.72;0.90;;;;;;;24.77;100.00;97911.53;15306118;19;20036;-78
2022/08/17 08:34:54;;;;;;;2.35;0.85;;;;;;;25.10;100.00;97918.84;15324876;19;20010;-78
2022/08/17 08:40:32;;;;;;;2.67;0.85;;;;;;;25.32;92.09;97904.88;15324786;19;20027;-78
2022/08/17 08:45:45;;;;;;;2.78;0.80;;;;;;;25.69;85.89;97910.25;15322099;19;20093;-78
2022/08/17 08:50:58;;;;;;;3.08;0.85;;;;;;;25.98;74.44;97906.13;15322892;19;20115;-80
2022/08/17 08:56:11;;;;;;;2.05;0.80;;;;;;;26.34;69.56;97903.41;15326156;19;20023;-77
2022/08/17 09:01:22;;;;;;;1.38;0.60;;;;;;;26.59;68.67;97907.25;15324624;19;20025;-78
2022/08/17 09:06:45;;;;;;;3.35;0.70;;;;;;;26.75;64.28;97906.09;15328493;19;20018;-78
2022/08/17 09:12:02;;;;;;;2.30;0.90;;;;;;;27.08;61.75;97908.50;15344088;19;20031;-77
2022/08/17 09:17:14;;;;;;;1.98;0.80;;;;;;;27.18;59.44;97904.88;15349371;19;20011;-79
2022/08/17 09:22:31;;;;;;;1.20;0.60;;;;;;;27.35;55.08;97899.00;15335837;19;20019;-79
2022/08/17 09:27:53;;;;;;;4.25;0.70;;;;;;;27.62;54.51;97893.06;15335996;19;20039;-77
2022/08/17 09:33:01;;;;;;;1.77;0.70;;;;;;;27.76;55.21;97893.25;15342836;19;20018;-81
2022/08/17 09:38:23;;;;;;;2.38;0.60;;;;;;;27.91;52.10;97877.66;15293401;19;20074;-80
2022/08/17 09:43:45;;;;;;;2.15;0.60;;;;;;;28.05;53.98;97878.66;15309626;19;20366;-80
2022/08/17 09:48:56;;;;;;;2.00;0.60;;;;;;;28.14;51.46;97878.88;15311626;19;20094;-80
2022/08/17 09:54:01;;;;;;;2.05;0.50;;;;;;;28.31;52.13;97881.22;15312851;19;20357;-79
2022/08/17 09:59:40;;;;;;;1.33;0.60;;;;;;;28.53;49.87;97891.78;15308740;19;20015;-79
2022/08/17 10:04:57;;;;;;;1.65;0.73;;;;;;;28.63;51.41;97877.03;15303278;19;20011;-80
2022/08/17 10:10:11;;;;;;;1.88;0.50;;;;;;;28.69;50.61;97869.47;15307735;19;20112;-80
2022/08/17 10:15:30;;;;;;;1.63;0.77;;;;;;;28.72;46.90;97855.06;15310341;19;20022;-79
2022/08/17 10:20:43;;;;;;;0.63;0.52;;;;;;;28.90;49.48;97853.47;15306276;19;20339;-81
2022/08/17 10:31:24;;;;;;;2.45;0.70;;;;;;;29.15;47.36;97851.50;15322429;19;20364;-79
2022/08/17 10:36:53;;;;;;;1.35;0.50;;;;;;;29.36;47.75;97855.69;15332127;19;20014;-80
2022/08/17 10:42:04;;;;;;;0.75;0.43;;;;;;;29.88;42.95;97856.84;15331370;19;20014;-81
2022/08/17 10:47:14;;;;;;;0.52;0.40;;;;;;;29.91;42.01;97856.25;15328998;19;20078;-79
2022/08/17 10:52:47;;;;;;;2.50;0.50;;;;;;;29.95;40.71;97844.25;15321368;19;20019;-80
2022/08/17 10:57:53;;;;;;;3.03;0.60;;;;;;;30.26;42.33;97854.03;15317222;19;20002;-80
2022/08/17 11:03:00;;;;;;;3.10;0.65;;;;;;;30.32;41.69;97858.34;15346721;19;20062;-80
2022/08/17 11:08:39;;;;;;;1.13;0.40;;;;;;;30.46;41.24;97852.00;15333540;19;20028;-81
2022/08/17 11:13:53;;;;;;;0.73;0.35;;;;;;;30.66;41.46;97834.94;15307130;19;20018;-81
2022/08/17 11:19:37;;;;;;;1.77;0.52;;;;;;;30.95;40.32;97842.16;15310509;19;20014;-74
2022/08/17 11:24:46;;;;;;;1.92;0.60;;;;;;;31.04;41.83;97842.25;15329462;19;20014;-75
2022/08/17 11:29:54;;;;;;;1.45;0.57;;;;;;;30.91;42.08;97846.69;15283139;19;20037;-76
2022/08/17 11:35:30;;;;;;;2.55;0.50;;;;;;;31.01;39.34;97842.88;15286671;19;20432;-76
2022/08/17 11:40:47;;;;;;;25.55;1.38;;;;;;;30.91;39.82;97835.56;15276395;19;20406;-75
2022/08/17 11:46:12;;;;;;;9.52;0.90;;;;;;;31.04;39.89;97820.81;15282160;19;20030;-75
2022/08/17 11:56:44;;;;;;;2.65;0.43;;;;;;;31.02;39.93;97825.88;15283850;19;20463;-75
2022/08/17 12:01:54;;;;;;;0.93;0.43;;;;;;;31.30;40.04;97838.94;15277779;19;20018;-75
2022/08/17 12:07:08;;;;;;;0.98;0.50;;;;;;;31.73;37.52;97840.50;15281885;19;20021;-75
2022/08/17 12:12:17;;;;;;;2.92;0.60;;;;;;;31.89;39.26;97850.13;15278070;19;20018;-76
2022/08/17 12:17:24;;;;;;;3.43;0.50;;;;;;;31.91;37.20;97833.94;15280256;19;20020;-76
2022/08/17 12:22:56;;;;;;;0.95;0.40;;;;;;;31.94;37.20;97827.69;15283409;19;20014;-76
2022/08/17 12:28:01;;;;;;;4.60;0.60;;;;;;;32.26;37.48;97828.59;15280135;19;20078;-75
2022/08/17 12:33:15;;;;;;;3.53;0.50;;;;;;;32.40;36.72;97819.34;15281716;19;20422;-76
2022/08/17 12:38:36;;;;;;;2.33;0.60;;;;;;;32.53;37.13;97815.59;15280518;19;20345;-75
2022/08/17 12:43:40;;;;;;;5.95;0.43;;;;;;;32.83;35.44;97810.34;15276019;19;20018;-74
2022/08/17 12:48:45;;;;;;;1.90;0.47;;;;;;;32.95;35.53;97808.91;15272609;19;20015;-75
2022/08/17 12:54:06;;;;;;;3.25;0.60;;;;;;;33.24;36.15;97799.06;15282141;19;20083;-76
2022/08/17 12:59:12;;;;;;;3.75;0.50;;;;;;;33.36;34.25;97792.88;15278743;19;20014;-76
2022/08/17 13:04:33;;;;;;;1.50;0.60;;;;;;;33.76;35.05;97793.53;15280342;19;20006;-76
2022/08/17 13:09:40;;;;;;;6.57;0.45;;;;;;;33.88;33.98;97789.28;15277161;19;20011;-76
2022/08/17 13:14:46;;;;;;;2.75;0.55;;;;;;;34.10;34.05;97777.06;15276506;19;20034;-76
2022/08/17 13:19:52;;;;;;;5.28;0.55;;;;;;;34.29;32.95;97779.44;15274203;19;20692;-75
2022/08/17 13:25:04;;;;;;;3.72;0.52;;;;;;;34.64;33.09;97778.53;15278355;19;20015;-76
2022/08/17 13:30:13;;;;;;;5.30;0.63;;;;;;;34.33;33.11;97777.63;15275792;19;20483;-75
2022/08/17 13:35:38;;;;;;;1.40;0.40;;;;;;;34.29;30.81;97770.25;15277740;19;20057;-76
2022/08/17 13:40:51;;;;;;;2.40;0.50;;;;;;;33.87;32.12;97765.25;15276448;19;20034;-76
2022/08/17 13:46:09;;;;;;;8.55;0.63;;;;;;;33.52;32.91;97780.06;15279225;19;20018;-75
2022/08/17 13:51:18;;;;;;;2.50;0.60;;;;;;;33.20;33.62;97776.59;15271148;19;20026;-76
2022/08/17 13:56:32;;;;;;;8.18;0.70;;;;;;;33.19;33.81;97781.34;15271025;19;20050;-75
2022/08/17 14:01:45;;;;;;;4.03;0.50;;;;;;;32.92;34.57;97770.47;15272570;19;20014;-76
2022/08/17 14:06:58;;;;;;;9.32;0.85;;;;;;;33.15;34.27;97771.19;15273161;19;20014;-76
2022/08/17 14:12:10;;;;;;;6.53;0.52;;;;;;;33.46;33.52;97762.66;15277306;19;20030;-76
2022/08/17 14:17:15;;;;;;;2.00;0.40;;;;;;;33.77;33.58;97764.44;15280605;19;20548;-75
2022/08/17 14:22:25;;;;;;;6.10;0.70;;;;;;;33.61;32.58;97777.28;15272744;19;20011;-76
2022/08/17 14:27:34;;;;;;;2.42;0.47;;;;;;;33.31;33.35;97771.50;15273840;19;20597;-76
2022/08/17 14:32:56;;;;;;;7.88;0.80;;;;;;;34.03;33.06;97763.59;15284330;19;20647;-77
2022/08/17 14:38:19;;;;;;;7.93;1.15;;;;;;;34.09;32.25;97748.28;15295338;19;20033;-77
2022/08/17 14:43:27;;;;;;;6.97;1.00;;;;;;;34.32;32.56;97742.44;15346079;19;20107;-75
2022/08/17 14:48:37;;;;;;;9.35;0.90;;;;;;;34.74;32.12;97746.56;15288688;19;20039;-75
2022/08/17 14:53:44;;;;;;;8.20;0.60;;;;;;;34.41;32.54;97750.84;15264942;19;20015;-75
2022/08/17 14:58:51;;;;;;;6.45;0.60;;;;;;;33.93;31.68;97753.59;14758523;19;10000342;-75
2022/08/17 15:03:57;;;;;;;5.13;0.70;;;;;;;33.61;32.96;97752.13;15276517;19;20100;-74
2022/08/17 15:09:01;;;;;;;3.67;0.60;;;;;;;33.75;33.00;97746.38;15272113;19;20466;-75
2022/08/17 15:14:09;;;;;;;6.88;0.68;;;;;;;33.66;33.02;97738.00;15284856;19;20014;-75
2022/08/17 15:19:14;;;;;;;7.53;0.60;;;;;;;33.59;33.40;97740.47;15283021;19;20019;-75
2022/08/17 15:24:18;;;;;;;6.43;0.55;;;;;;;33.61;33.56;97744.59;15285215;19;20483;-75
2022/08/17 15:29:25;;;;;;;2.35;0.65;;;;;;;34.03;32.60;97746.84;15278834;19;20046;-75
2022/08/17 15:34:30;;;;;;;5.55;0.70;;;;;;;34.47;32.28;97734.69;15285747;19;20396;-74
2022/08/17 15:39:34;;;;;;;3.78;0.60;;;;;;;33.95;32.44;97733.69;15284934;19;20014;-74
2022/08/17 15:44:43;;;;;;;7.35;0.60;;;;;;;33.86;33.11;97744.03;15288603;19;20371;-73
2022/08/17 15:49:49;;;;;;;3.17;0.65;;;;;;;33.48;33.35;97738.03;15290392;19;20836;-74
2022/08/17 15:54:56;;;;;;;1.35;0.60;;;;;;;33.90;32.68;97731.91;15293428;19;20016;-75
2022/08/17 16:00:05;;;;;;;1.52;0.60;;;;;;;34.18;32.75;97725.91;15282188;19;20034;-74
2022/08/17 16:05:17;;;;;;;5.75;0.70;;;;;;;34.38;32.67;97729.94;15261351;19;20010;-76
2022/08/17 16:10:23;;;;;;;6.47;0.60;;;;;;;34.56;32.67;97729.84;15287051;19;20022;-77
2022/08/17 16:15:41;;;;;;;3.83;0.50;;;;;;;34.48;32.22;97733.53;15291060;19;20512;-76
2022/08/17 16:20:46;;;;;;;4.05;0.77;;;;;;;34.49;32.40;97726.78;15286053;19;20696;-76
2022/08/17 16:25:51;;;;;;;2.65;0.60;;;;;;;34.58;32.95;97727.56;15287765;19;20019;-76
2022/08/17 16:31:00;;;;;;;4.28;0.60;;;;;;;34.71;32.17;97715.28;15280042;19;20014;-76
2022/08/17 16:36:06;;;;;;;7.32;0.70;;;;;;;34.95;32.16;97713.84;15285150;19;20015;-76
2022/08/17 16:41:11;;;;;;;1.52;0.50;;;;;;;34.75;32.51;97732.22;15283785;19;20331;-77
2022/08/17 16:46:18;;;;;;;2.65;0.52;;;;;;;34.55;32.41;97723.47;15288515;19;20609;-76
2022/08/17 16:51:23;;;;;;;4.35;0.70;;;;;;;34.21;32.47;97724.41;15284805;19;20014;-76
2022/08/17 16:56:31;;;;;;;8.43;0.75;;;;;;;34.02;33.16;97724.81;15285611;19;20007;-74
2022/08/17 17:01:40;;;;;;;0.90;0.50;;;;;;;33.65;33.40;97733.59;15276203;19;20015;-75
2022/08/17 17:06:59;;;;;;;2.97;0.43;;;;;;;33.39;33.60;97739.19;15280877;19;20007;-76
2022/08/17 17:12:09;;;;;;;7.67;0.60;;;;;;;33.04;33.86;97745.56;15281178;19;20019;-75
2022/08/17 17:17:25;;;;;;;71.55;3.22;;;;;;;32.72;34.05;97751.19;15285937;19;20348;-77
2022/08/17 17:22:39;;;;;;;415.42;14.77;;;;;;;32.40;34.47;97750.47;15286644;19;20010;-76
2022/08/17 17:27:51;;;;;;;46.75;1.85;;;;;;;31.57;37.16;97768.47;15286252;19;20015;-76
2022/08/17 17:33:05;;;;;;;165.18;6.28;;;;;;;30.57;39.16;97765.38;15298627;19;20011;-75
2022/08/17 17:38:16;;;;;;;15.52;1.40;;;;;;;30.21;39.72;97767.97;15317340;19;20010;-75
2022/08/17 17:43:28;;;;;;;16.95;1.38;;;;;;;29.72;40.54;97761.88;15286308;19;20027;-76
2022/08/17 17:48:51;;;;;;;13.63;1.17;;;;;;;29.41;41.60;97759.59;15282322;19;20490;-73
2022/08/17 17:54:04;;;;;;;20.25;1.40;;;;;;;29.16;42.16;97779.09;15282230;19;20091;-74
2022/08/17 17:59:16;;;;;;;7.32;0.85;;;;;;;29.01;42.85;97782.06;15276587;19;20015;-75
2022/08/17 18:04:29;;;;;;;3.53;0.80;;;;;;;28.83;43.51;97790.06;15282242;19;20749;-76
2022/08/17 18:09:55;;;;;;;2.33;0.80;;;;;;;28.74;44.14;97786.31;15276689;19;20014;-76
2022/08/17 18:15:11;;;;;;;;;;;;;;;28.55;44.53;97781.50;15281447;19;20015;-75
2022/08/17 18:20:25;;;;;;;4.22;0.88;;;;;;;28.45;44.76;97787.16;15275644;19;19914;-76
2022/08/17 18:25:48;;;;;;;8.37;0.97;;;;;;;28.23;45.11;97785.75;15283375;19;20010;-76
2022/08/17 18:31:13;;;;;;;3.35;0.60;;;;;;;28.06;45.61;97771.47;15278376;19;20014;-74
2022/08/17 18:36:35;;;;;;;3.95;0.80;;;;;;;27.94;46.50;97781.00;15282131;19;20030;-75
2022/08/17 18:41:43;;;;;;;6.13;0.77;;;;;;;27.84;46.16;97783.84;15273737;19;20011;-75
2022/08/17 18:46:47;;;;;;;8.73;0.98;;;;;;;27.65;46.96;97780.97;15304804;19;20051;-74
2022/08/17 18:52:11;;;;;;;1.77;0.80;;;;;;;27.51;48.01;97778.03;15324403;19;20021;-74
2022/08/17 18:57:21;;;;;;;6.75;0.70;;;;;;;27.38;48.10;97772.03;15289245;19;20023;-75
2022/08/17 19:02:28;;;;;;;5.30;0.80;;;;;;;27.31;48.56;97771.53;15289379;19;20033;-74
2022/08/17 19:07:52;;;;;;;6.50;0.90;;;;;;;27.31;48.80;97770.69;15285356;19;20013;-76
2022/08/17 19:13:09;;;;;;;7.75;0.98;;;;;;;27.28;49.18;97769.34;15285566;19;20011;-74
2022/08/17 19:18:20;;;;;;;6.90;0.90;;;;;;;27.22;49.69;97768.53;15277921;19;20015;-74
2022/08/17 19:23:34;;;;;;;4.05;0.88;;;;;;;27.15;50.17;97794.84;15285200;19;20021;-73
2022/08/17 19:28:46;;;;;;;9.15;1.00;;;;;;;26.94;51.07;97785.84;15284019;19;20042;-74
2022/08/17 19:33:53;;;;;;;3.75;1.05;;;;;;;26.85;51.25;97791.16;15287715;19;20429;-74
2022/08/17 19:39:07;;;;;;;4.43;0.80;;;;;;;26.75;51.61;97794.75;15287600;19;20019;-74
2022/08/17 19:44:45;;;;;;;5.07;0.80;;;;;;;26.66;52.66;97783.44;15284437;19;20050;-74
2022/08/17 19:50:01;;;;;;;7.65;0.88;;;;;;;26.48;53.94;97792.38;15278445;19;20797;-75
2022/08/17 19:55:17;;;;;;;5.07;0.90;;;;;;;26.22;56.33;97779.47;15288617;19;20036;-73
2022/08/17 20:00:24;;;;;;;4.25;0.70;;;;;;;26.07;57.11;97782.22;15281381;19;20018;-74
2022/08/17 20:05:32;;;;;;;5.05;1.00;;;;;;;26.06;57.23;97778.63;15285362;19;20022;-74
2022/08/17 20:11:04;;;;;;;4.63;1.02;;;;;;;26.06;57.24;97797.94;15281427;19;20318;-73
2022/08/17 20:16:10;;;;;;;1.42;0.70;;;;;;;25.99;56.87;97789.94;15281188;19;20623;-74
2022/08/17 20:21:19;;;;;;;1.75;0.90;;;;;;;25.94;57.97;97797.38;15272525;19;20014;-73
2022/08/17 20:26:30;;;;;;;6.88;0.70;;;;;;;25.84;59.10;97796.31;15261907;19;20020;-74
2022/08/17 20:31:44;;;;;;;2.70;1.00;;;;;;;25.71;59.67;97791.34;15280164;19;20035;-75
2022/08/17 20:37:00;;;;;;;3.72;0.93;;;;;;;25.60;60.70;97784.16;15284914;19;20018;-74
2022/08/17 20:42:28;;;;;;;6.45;1.20;;;;;;;25.47;62.04;97780.03;15280988;19;20014;-74
2022/08/17 20:47:35;;;;;;;5.03;0.90;;;;;;;25.34;63.10;97786.91;15271729;19;20558;-74
2022/08/17 20:52:53;;;;;;;3.10;0.80;;;;;;;25.17;66.44;97785.19;15273484;19;20387;-75
2022/08/17 20:58:22;;;;;;;7.00;1.08;;;;;;;25.03;67.92;97782.16;15277958;19;20019;-75
2022/08/17 21:03:49;;;;;;;2.85;0.95;;;;;;;24.91;71.96;97781.56;15281077;19;20011;-74
2022/08/17 21:08:59;;;;;;;1.42;0.63;;;;;;;24.88;70.02;97791.16;15274270;19;20003;-75
2022/08/17 21:14:14;;;;;;;4.43;1.00;;;;;;;24.81;71.68;97796.13;15277761;19;20479;-75
2022/08/17 21:19:37;;;;;;;3.25;0.80;;;;;;;24.71;74.04;97805.16;15268529;19;20057;-74
2022/08/17 21:25:08;;;;;;;5.22;0.77;;;;;;;24.65;73.41;97803.47;15273724;19;20018;-74
2022/08/17 21:30:25;;;;;;;6.38;0.90;;;;;;;24.56;75.81;97808.66;15273996;19;20010;-74
2022/08/17 21:35:48;;;;;;;3.97;0.90;;;;;;;24.50;79.06;97806.13;15275265;19;20014;-75
2022/08/17 21:40:54;;;;;;;3.80;0.90;;;;;;;24.40;78.84;97804.16;15274342;19;20010;-74
2022/08/17 21:46:05;;;;;;;2.63;0.82;;;;;;;24.27;80.93;97817.31;15275409;19;20010;-74
2022/08/17 21:51:13;;;;;;;4.85;1.00;;;;;;;24.15;81.62;97820.25;15264315;19;20421;-74
2022/08/17 21:56:25;;;;;;;4.07;0.98;;;;;;;24.04;83.57;97817.72;15273303;19;20034;-74
2022/08/17 22:01:35;;;;;;;1.75;0.80;;;;;;;23.96;84.98;97813.50;15270697;19;20017;-74
2022/08/17 22:06:44;;;;;;;2.45;0.90;;;;;;;23.87;86.11;97826.88;15274404;19;20021;-74
2022/08/17 22:12:06;;;;;;;3.55;0.90;;;;;;;23.76;87.75;97830.66;15270723;19;20074;-74
2022/08/17 22:17:18;;;;;;;1.57;0.90;;;;;;;23.66;89.17;97832.22;15274619;19;20438;-75
2022/08/17 22:22:28;;;;;;;5.18;0.90;;;;;;;23.55;91.45;97841.47;15265738;19;19999;-75
2022/08/17 22:27:47;;;;;;;5.30;0.88;;;;;;;23.42;94.92;97836.38;15275862;19;20031;-74
2022/08/17 22:32:55;;;;;;;6.03;1.10;;;;;;;23.33;95.17;97833.28;15269935;19;20011;-75
2022/08/17 22:38:28;;;;;;;4.97;1.00;;;;;;;23.26;97.47;97833.47;15279964;19;20019;-76
2022/08/17 22:43:33;;;;;;;6.03;1.10;;;;;;;23.15;98.23;97835.25;15279497;19;20039;-74
2022/08/17 22:48:49;;;;;;;3.85;0.93;;;;;;;23.06;99.93;97832.13;15280362;19;20402;-75
2022/08/17 23:05:17;;;;;;;3.75;1.00;;;;;;;22.91;100.00;97826.47;15346126;19;20042;-75
2022/08/17 23:10:22;;;;;;;2.38;1.10;;;;;;;22.84;100.00;97832.16;15285212;19;20619;-74
2022/08/17 23:15:32;;;;;;;5.97;0.95;;;;;;;22.78;100.00;97827.69;15273663;19;20021;-75
2022/08/17 23:20:42;;;;;;;3.70;1.23;;;;;;;22.71;100.00;97827.88;15269049;19;20035;-75
2022/08/17 23:25:48;;;;;;;2.25;0.80;;;;;;;22.64;100.00;97827.22;15273381;19;20015;-74
2022/08/17 23:30:53;;;;;;;3.72;0.80;;;;;;;22.58;100.00;97828.25;15263057;19;20029;-75
2022/08/17 23:36:00;;;;;;;3.47;1.00;;;;;;;22.53;100.00;97815.28;15275738;19;20035;-75
2022/08/17 23:41:12;;;;;;;3.20;0.90;;;;;;;22.43;100.00;97806.91;15281901;19;20038;-75
2022/08/17 23:46:17;;;;;;;5.40;1.20;;;;;;;22.35;100.00;97808.16;15285613;19;20018;-73
2022/08/17 23:51:28;;;;;;;3.72;0.80;;;;;;;22.30;100.00;97808.06;15280537;19;20377;-75
2022/08/17 23:56:36;;;;;;;5.05;1.00;;;;;;;22.24;100.00;97811.84;15296357;19;20011;-72
